Time;durP1;ratioP1;P1;durP2;ratioP2;P2;SDS_P1;SDS_P2;PMS_P1;PMS_P2;Temp;Humidity;BMP_temperature;BMP_pressure;BME280_temperature;BME280_humidity;BME280_pressure;Samples;Min_cycle;Max_cycle;Signal;HPM_P1;HPM_P2
2022/05/20 00:01:12;;;;;;;11.25;4.32;;;22.20;75.60;;;;;;4936359;29;20032;-69
2022/05/20 00:03:38;;;;;;;8.23;4.77;;;22.20;75.60;;;;;;4936387;29;20118;-69
2022/05/20 00:06:05;;;;;;;10.85;4.55;;;22.20;75.60;;;;;;4936126;29;20059;-67
2022/05/20 00:08:31;;;;;;;8.73;4.18;;;22.20;76.20;;;;;;4936433;29;20488;-69
2022/05/20 00:10:57;;;;;;;9.63;4.45;;;22.30;75.40;;;;;;4936020;29;20035;-71
2022/05/20 00:13:24;;;;;;;17.95;4.60;;;22.30;75.60;;;;;;4936232;29;20036;-69
2022/05/20 00:15:51;;;;;;;10.15;4.78;;;22.30;75.30;;;;;;4936337;29;20020;-70
2022/05/20 00:18:17;;;;;;;9.20;4.28;;;22.30;75.20;;;;;;4934871;29;20550;-69
2022/05/20 00:20:43;;;;;;;14.35;5.47;;;22.20;74.50;;;;;;4934757;29;20024;-68
2022/05/20 00:23:09;;;;;;;8.90;4.50;;;22.20;74.60;;;;;;4936053;29;20031;-67
2022/05/20 00:25:48;;;;;;;11.95;4.53;;;22.20;74.60;;;;;;4936158;29;20176;-69
2022/05/20 00:28:20;;;;;;;11.68;4.43;;;22.20;74.80;;;;;;4936104;29;20342;-68
2022/05/20 00:30:51;;;;;;;11.38;4.60;;;22.20;74.50;;;;;;4935762;29;20076;-67
2022/05/20 00:33:17;;;;;;;11.05;4.47;;;22.20;74.00;;;;;;4936082;29;20377;-66
2022/05/20 00:35:45;;;;;;;11.15;4.93;;;22.20;73.80;;;;;;4935210;29;20028;-68
2022/05/20 00:38:12;;;;;;;7.65;4.22;;;22.20;73.50;;;;;;4935872;29;20134;-66
2022/05/20 00:40:39;;;;;;;10.80;4.63;;;22.10;72.80;;;;;;4935651;29;20032;-68
2022/05/20 00:43:22;;;;;;;9.88;4.13;;;22.10;72.90;;;;;;4935896;29;20434;-68
2022/05/20 00:45:48;;;;;;;9.68;4.82;;;22.10;73.10;;;;;;4936234;29;20345;-68
2022/05/20 00:48:13;;;;;;;10.43;4.55;;;22.10;72.60;;;;;;4935807;29;20028;-66
2022/05/20 00:50:43;;;;;;;12.52;4.32;;;22.10;72.40;;;;;;4935378;29;20183;-66
2022/05/20 00:53:11;;;;;;;12.65;4.40;;;22.10;73.10;;;;;;4935592;29;20040;-66
2022/05/20 00:55:36;;;;;;;12.93;4.65;;;22.10;72.50;;;;;;4935794;29;20020;-67
2022/05/20 00:58:09;;;;;;;9.18;4.57;;;22.10;72.00;;;;;;4935595;29;20377;-66
2022/05/20 01:00:41;;;;;;;9.60;5.15;;;22.10;72.50;;;;;;4934346;29;20373;-67
2022/05/20 01:03:09;;;;;;;10.25;4.80;;;22.00;72.20;;;;;;4935534;29;20079;-66
2022/05/20 01:05:44;;;;;;;12.88;4.70;;;22.00;72.30;;;;;;4934243;29;20020;-67
2022/05/20 01:08:14;;;;;;;11.40;5.40;;;22.00;71.70;;;;;;4935483;29;20032;-68
2022/05/20 01:10:40;;;;;;;10.82;4.90;;;22.00;72.10;;;;;;4935453;29;20062;-67
2022/05/20 01:13:06;;;;;;;15.20;5.10;;;21.90;72.00;;;;;;4935692;29;20064;-67
2022/05/20 01:15:32;;;;;;;10.35;4.93;;;21.90;71.50;;;;;;4935547;29;20023;-66
2022/05/20 01:17:58;;;;;;;16.92;5.55;;;22.00;71.80;;;;;;4934167;29;20389;-68
2022/05/20 01:20:32;;;;;;;15.15;6.03;;;21.90;71.60;;;;;;4935334;29;20098;-72
2022/05/20 01:23:12;;;;;;;14.95;5.63;;;21.90;72.20;;;;;;4934158;29;20034;-66
2022/05/20 01:25:41;;;;;;;15.50;6.20;;;21.90;71.90;;;;;;4935486;29;20036;-67
2022/05/20 01:28:07;;;;;;;10.60;6.32;;;21.80;71.70;;;;;;4935582;29;20091;-67
2022/05/20 01:30:33;;;;;;;14.88;6.35;;;21.60;70.80;;;;;;4935446;29;20027;-69
2022/05/20 01:33:06;;;;;;;16.13;6.22;;;21.50;71.20;;;;;;4935389;29;20323;-69
2022/05/20 01:35:43;;;;;;;16.38;6.65;;;21.40;71.30;;;;;;4935505;29;20082;-68
2022/05/20 01:38:11;;;;;;;14.18;6.68;;;21.20;70.90;;;;;;4935381;29;20054;-67
2022/05/20 01:40:50;;;;;;;17.15;6.40;;;21.10;70.80;;;;;;4935071;29;20039;-66
2022/05/20 01:43:54;;;;;;;13.65;5.65;;;21.10;70.30;;;;;;4935398;29;20496;-67
2022/05/20 01:46:26;;;;;;;16.83;6.50;;;21.00;70.80;;;;;;4934909;29;20043;-67
2022/05/20 01:49:10;;;;;;;11.20;5.88;;;21.00;70.00;;;;;;4938389;29;20024;-66
2022/05/20 01:52:01;;;;;;;20.10;6.38;;;21.00;70.50;;;;;;4938843;29;20027;-67
2022/05/20 01:54:46;;;;;;;14.15;5.88;;;21.10;69.20;;;;;;4938733;29;20079;-68
2022/05/20 01:57:36;;;;;;;16.40;6.63;;;21.00;70.20;;;;;;4938976;29;20034;-67
2022/05/20 02:00:18;;;;;;;16.33;6.30;;;21.10;69.90;;;;;;4937319;29;20154;-66
2022/05/20 02:02:44;;;;;;;15.25;6.60;;;21.10;68.40;;;;;;4938957;29;20110;-67
2022/05/20 02:05:31;;;;;;;9.32;6.10;;;21.00;68.80;;;;;;4938449;29;20413;-67
2022/05/20 02:08:07;;;;;;;12.13;6.25;;;21.00;69.20;;;;;;4938657;29;20043;-68
2022/05/20 02:10:59;;;;;;;20.02;5.78;;;21.00;68.70;;;;;;4938656;29;20104;-67
2022/05/20 02:13:27;;;;;;;12.02;5.75;;;20.90;68.90;;;;;;4938699;29;20547;-68
2022/05/20 02:16:02;;;;;;;15.38;5.55;;;20.80;68.70;;;;;;4938503;29;20528;-67
2022/05/20 02:18:40;;;;;;;12.85;5.63;;;20.70;68.90;;;;;;4938362;29;20115;-67
2022/05/20 02:21:12;;;;;;;12.70;5.70;;;20.70;67.70;;;;;;4938303;29;20028;-67
2022/05/20 02:23:46;;;;;;;12.50;5.70;;;20.70;68.60;;;;;;4938257;29;20083;-67
2022/05/20 02:26:19;;;;;;;9.75;5.35;;;20.60;68.90;;;;;;4936792;29;20079;-68
2022/05/20 02:28:55;;;;;;;10.32;5.85;;;20.60;69.00;;;;;;4938481;29;20064;-67
2022/05/20 02:31:27;;;;;;;15.20;6.75;;;20.50;69.00;;;;;;4938186;29;20409;-67
2022/05/20 02:33:53;;;;;;;13.40;6.00;;;20.40;69.10;;;;;;4938070;29;20028;-67
2022/05/20 02:36:22;;;;;;;12.20;5.65;;;20.30;68.90;;;;;;4938294;29;20030;-68
2022/05/20 02:38:48;;;;;;;11.73;6.07;;;20.30;68.40;;;;;;4937619;29;20040;-67
2022/05/20 02:41:13;;;;;;;9.95;4.85;;;20.20;69.40;;;;;;4937714;29;20370;-66
2022/05/20 02:43:39;;;;;;;11.07;5.07;;;20.20;69.90;;;;;;4936690;29;20063;-66
2022/05/20 02:46:05;;;;;;;11.63;5.38;;;20.20;69.60;;;;;;4937735;29;20042;-69
2022/05/20 02:48:31;;;;;;;15.15;5.63;;;20.10;69.80;;;;;;4937977;29;20031;-66
2022/05/20 02:50:58;;;;;;;11.70;4.95;;;20.10;70.20;;;;;;4937767;29;20106;-68
2022/05/20 02:53:24;;;;;;;8.38;4.65;;;20.10;70.20;;;;;;4937328;29;20396;-67
2022/05/20 02:55:50;;;;;;;9.98;5.20;;;20.10;69.50;;;;;;4920478;29;20028;-67
2022/05/20 03:04:09;;;;;;;9.02;4.22;;;20.20;69.90;;;;;;4937828;29;20077;-67
2022/05/20 03:06:36;;;;;;;14.50;5.30;;;20.20;69.60;;;;;;4937718;29;20071;-67
2022/05/20 03:09:03;;;;;;;10.82;4.93;;;20.10;69.80;;;;;;4937451;29;20426;-68
2022/05/20 03:11:29;;;;;;;10.63;4.72;;;20.10;70.40;;;;;;4936126;29;20468;-67
2022/05/20 03:13:55;;;;;;;15.27;5.20;;;20.10;70.60;;;;;;4937272;29;20063;-68
2022/05/20 03:16:20;;;;;;;13.07;5.22;;;20.10;70.20;;;;;;4937308;29;20413;-68
2022/05/20 03:18:46;;;;;;;10.00;5.28;;;20.00;70.20;;;;;;4937309;29;20071;-70
2022/05/20 03:21:12;;;;;;;10.60;5.53;;;19.90;71.00;;;;;;4937192;29;20028;-69
2022/05/20 03:23:37;;;;;;;13.88;5.78;;;19.90;70.90;;;;;;4937148;29;20495;-66
2022/05/20 03:26:04;;;;;;;17.25;5.60;;;19.90;71.40;;;;;;4936944;29;20028;-68
2022/05/20 03:28:30;;;;;;;10.77;5.57;;;19.90;72.00;;;;;;4936993;29;20028;-69
2022/05/20 03:31:03;;;;;;;12.95;6.25;;;19.80;71.70;;;;;;4937077;29;20042;-68
2022/05/20 03:33:29;;;;;;;10.23;5.53;;;19.80;72.10;;;;;;4937056;29;20341;-69
2022/05/20 03:35:55;;;;;;;15.75;6.00;;;19.70;72.30;;;;;;4937219;29;20463;-71
2022/05/20 03:38:20;;;;;;;10.27;5.22;;;19.60;72.60;;;;;;4937356;29;20036;-67
2022/05/20 03:40:46;;;;;;;9.82;5.57;;;19.70;72.60;;;;;;4936794;29;20094;-67
2022/05/20 03:43:12;;;;;;;13.68;5.80;;;19.80;72.60;;;;;;4936767;29;20472;-68
2022/05/20 03:45:42;;;;;;;11.35;6.05;;;19.80;72.50;;;;;;4936716;29;20106;-67
2022/05/20 03:48:08;;;;;;;9.90;4.75;;;19.90;73.00;;;;;;4936476;29;20024;-69
2022/05/20 03:50:34;;;;;;;14.77;5.70;;;19.90;72.50;;;;;;4936353;29;20024;-67
2022/05/20 03:53:00;;;;;;;9.70;5.03;;;19.80;71.90;;;;;;4936577;29;20063;-68
2022/05/20 03:55:26;;;;;;;11.65;5.07;;;19.80;72.40;;;;;;4935008;29;20130;-68
2022/05/20 03:57:52;;;;;;;10.45;5.13;;;19.80;72.40;;;;;;4936415;29;20051;-67
2022/05/20 04:00:18;;;;;;;9.90;4.82;;;19.70;72.10;;;;;;4934998;29;20028;-67
2022/05/20 04:02:44;;;;;;;12.15;5.25;;;19.80;72.10;;;;;;4936490;29;20392;-66
2022/05/20 04:05:10;;;;;;;11.93;4.63;;;19.70;71.10;;;;;;4936311;29;20016;-69
2022/05/20 04:07:36;;;;;;;10.82;5.28;;;19.80;71.30;;;;;;4936750;29;20102;-67
2022/05/20 04:10:02;;;;;;;9.43;4.65;;;19.80;71.40;;;;;;4936115;29;20024;-67
2022/05/20 04:12:43;;;;;;;8.55;4.68;;;19.80;71.60;;;;;;4935743;29;20031;-68
2022/05/20 04:15:13;;;;;;;12.50;4.70;;;19.70;71.60;;;;;;4935097;29;20039;-66
2022/05/20 04:17:39;;;;;;;13.77;4.63;;;19.70;71.70;;;;;;4935822;29;20090;-67
2022/05/20 04:20:06;;;;;;;12.02;4.47;;;19.80;71.60;;;;;;4936181;29;20035;-67
2022/05/20 04:22:35;;;;;;;11.35;4.72;;;19.70;71.80;;;;;;4935827;29;20023;-66
2022/05/20 04:25:01;;;;;;;9.63;4.63;;;19.60;72.90;;;;;;4934947;29;20055;-69
2022/05/20 04:27:27;;;;;;;10.13;4.63;;;19.60;72.20;;;;;;4936201;29;20027;-67
2022/05/20 04:29:54;;;;;;;10.35;4.53;;;19.60;72.20;;;;;;4935804;29;20109;-67
2022/05/20 04:32:20;;;;;;;10.65;4.80;;;19.60;72.70;;;;;;4935874;29;20059;-67
2022/05/20 04:34:46;;;;;;;8.55;5.03;;;19.50;71.80;;;;;;4936083;29;20032;-68
2022/05/20 04:37:12;;;;;;;13.73;4.38;;;19.60;72.20;;;;;;4935953;29;20102;-67
2022/05/20 04:39:37;;;;;;;9.23;4.40;;;19.60;72.10;;;;;;4934329;29;20115;-66
2022/05/20 04:47:33;;;;;;;12.90;4.43;;;19.50;71.90;;;;;;4935899;29;20501;-67
2022/05/20 04:49:59;;;;;;;12.07;4.72;;;19.40;72.30;;;;;;4935798;29;20350;-67
2022/05/20 04:52:25;;;;;;;12.63;4.50;;;19.50;72.10;;;;;;4935614;29;20032;-67
2022/05/20 04:54:52;;;;;;;10.15;4.10;;;19.40;72.40;;;;;;4935496;29;20572;-69
2022/05/20 04:57:31;;;;;;;10.32;4.10;;;19.40;72.60;;;;;;4935894;29;20070;-68
2022/05/20 05:00:01;;;;;;;8.43;4.20;;;19.50;71.50;;;;;;4935600;29;20035;-67
2022/05/20 05:02:28;;;;;;;11.18;4.10;;;19.60;72.10;;;;;;4935814;29;20433;-67
2022/05/20 05:04:54;;;;;;;11.45;4.18;;;19.60;72.40;;;;;;4935503;29;20027;-67
2022/05/20 05:07:20;;;;;;;10.07;4.13;;;19.80;71.90;;;;;;4935533;29;20028;-68
2022/05/20 05:09:47;;;;;;;8.27;4.25;;;19.90;71.60;;;;;;4935343;29;20118;-66
2022/05/20 05:12:14;;;;;;;18.80;5.03;;;20.10;70.60;;;;;;4934068;29;20028;-66
2022/05/20 05:14:43;;;;;;;8.98;4.20;;;20.30;70.50;;;;;;4935731;29;20032;-68
2022/05/20 05:17:11;;;;;;;11.38;4.47;;;20.60;70.00;;;;;;4935254;29;20035;-68
2022/05/20 05:19:38;;;;;;;8.02;3.80;;;20.90;68.80;;;;;;4935275;29;20042;-67
2022/05/20 05:22:08;;;;;;;9.40;3.85;;;21.30;67.80;;;;;;4934254;29;20035;-71
2022/05/20 05:24:35;;;;;;;11.23;4.22;;;21.60;66.60;;;;;;4937817;29;20380;-66
2022/05/20 05:27:01;;;;;;;13.85;4.32;;;22.00;65.60;;;;;;4939178;29;20055;-68
2022/05/20 05:29:27;;;;;;;12.48;4.03;;;22.20;64.80;;;;;;4939243;29;20496;-66
2022/05/20 05:31:53;;;;;;;13.13;4.20;;;22.60;63.60;;;;;;4939073;29;20032;-69
2022/05/20 05:34:19;;;;;;;11.55;4.10;;;22.80;62.60;;;;;;4939158;29;20039;-66
2022/05/20 05:36:44;;;;;;;11.00;3.60;;;23.00;62.40;;;;;;4939065;29;20035;-67
2022/05/20 05:39:10;;;;;;;11.80;4.32;;;23.40;61.40;;;;;;4938757;29;20051;-73
2022/05/20 05:41:36;;;;;;;7.68;4.30;;;23.90;60.60;;;;;;4938881;29;20380;-67
2022/05/20 05:44:03;;;;;;;11.82;5.10;;;24.20;59.30;;;;;;4939173;29;20039;-66
2022/05/20 05:46:30;;;;;;;8.95;4.47;;;24.50;59.00;;;;;;4939109;29;20078;-68
2022/05/20 05:48:57;;;;;;;11.88;4.13;;;24.70;58.10;;;;;;4939537;29;20028;-68
2022/05/20 05:51:23;;;;;;;10.70;4.07;;;24.80;57.70;;;;;;4939554;29;20171;-67
2022/05/20 05:53:49;;;;;;;14.10;4.20;;;25.00;57.30;;;;;;4939796;29;20136;-69
2022/05/20 05:56:14;;;;;;;11.93;4.45;;;25.20;56.90;;;;;;4939948;29;20031;-69
2022/05/20 05:58:40;;;;;;;13.77;3.97;;;25.30;56.40;;;;;;4938568;29;20043;-71
2022/05/20 06:01:06;;;;;;;12.70;4.65;;;25.30;56.00;;;;;;4936833;29;20071;-71
2022/05/20 06:03:32;;;;;;;15.88;4.60;;;25.50;55.60;;;;;;4938451;29;20183;-68
2022/05/20 06:05:57;;;;;;;14.43;4.30;;;25.60;55.20;;;;;;4938246;29;20026;-70
2022/05/20 06:08:23;;;;;;;11.57;4.20;;;25.70;54.90;;;;;;4938262;29;20028;-71
2022/05/20 06:10:49;;;;;;;14.80;4.07;;;25.90;54.70;;;;;;4938101;29;20028;-69
2022/05/20 06:13:25;;;;;;;12.32;4.45;;;25.90;54.10;;;;;;4938200;29;20449;-69
2022/05/20 06:15:52;;;;;;;11.50;4.10;;;26.10;53.10;;;;;;4936770;29;20051;-69
2022/05/20 06:18:18;;;;;;;12.38;4.20;;;26.10;53.60;;;;;;4938000;29;20032;-69
2022/05/20 06:20:43;;;;;;;11.38;4.10;;;26.30;53.10;;;;;;4937794;29;20028;-69
2022/05/20 06:23:09;;;;;;;13.15;4.78;;;26.20;53.50;;;;;;4937861;29;20086;-70
2022/05/20 06:25:35;;;;;;;12.13;4.10;;;26.30;53.10;;;;;;4937575;29;20055;-68
2022/05/20 06:28:06;;;;;;;12.70;5.32;;;26.30;52.90;;;;;;4937732;29;20095;-68
2022/05/20 06:30:32;;;;;;;13.48;5.18;;;26.40;52.90;;;;;;4937889;29;20128;-70
2022/05/20 06:32:58;;;;;;;14.63;4.60;;;26.60;52.10;;;;;;4937969;29;20032;-71
2022/05/20 06:40:55;;;;;;;17.38;4.75;;;27.00;50.20;;;;;;4937618;29;20102;-69
2022/05/20 06:43:21;;;;;;;15.73;4.30;;;27.00;51.20;;;;;;4937777;29;20386;-68
2022/05/20 06:45:50;;;;;;;33.00;23.67;;;26.90;51.10;;;;;;4937701;29;20027;-69
2022/05/20 06:48:16;;;;;;;13.85;7.28;;;27.20;51.00;;;;;;4937654;29;20027;-68
2022/05/20 06:50:42;;;;;;;11.93;4.82;;;27.40;50.50;;;;;;4937384;29;20102;-68
2022/05/20 06:53:09;;;;;;;15.50;4.95;;;27.50;50.20;;;;;;4937469;29;20115;-68
2022/05/20 06:55:35;;;;;;;38.80;7.45;;;27.50;49.70;;;;;;4937479;29;20083;-68
2022/05/20 06:58:02;;;;;;;34.13;6.00;;;27.50;49.90;;;;;;4937211;29;20031;-66
2022/05/20 07:00:28;;;;;;;15.85;5.07;;;27.60;49.60;;;;;;4937805;29;20024;-68
2022/05/20 07:02:53;;;;;;;15.10;5.30;;;27.60;49.50;;;;;;4937162;29;20035;-66
2022/05/20 07:05:19;;;;;;;15.82;4.07;;;27.70;49.30;;;;;;4937269;29;20075;-66
2022/05/20 07:07:45;;;;;;;11.40;4.10;;;27.70;48.90;;;;;;4937532;29;20020;-68
2022/05/20 07:10:13;;;;;;;18.23;4.93;;;27.80;49.30;;;;;;4937096;29;20036;-66
2022/05/20 07:12:39;;;;;;;15.73;4.05;;;28.00;48.80;;;;;;4937237;29;20069;-68
2022/05/20 07:15:06;;;;;;;16.02;3.88;;;28.00;48.70;;;;;;4937148;29;20465;-67
2022/05/20 07:17:31;;;;;;;14.57;4.20;;;28.00;48.40;;;;;;4937083;29;20026;-67
2022/05/20 07:19:57;;;;;;;13.85;4.82;;;27.90;48.30;;;;;;4937149;29;20400;-68
2022/05/20 07:22:23;;;;;;;10.15;3.92;;;27.90;48.20;;;;;;4937012;29;20457;-67
2022/05/20 07:24:50;;;;;;;9.38;3.70;;;27.90;47.90;;;;;;4936914;29;20433;-70
2022/05/20 07:27:15;;;;;;;13.15;6.07;;;27.90;48.00;;;;;;4936845;29;20064;-71
2022/05/20 07:29:41;;;;;;;24.10;8.50;;;28.00;47.80;;;;;;4936581;29;20027;-67
2022/05/20 07:32:07;;;;;;;16.98;4.47;;;28.00;47.40;;;;;;4936516;29;20071;-68
2022/05/20 07:34:33;;;;;;;16.00;3.95;;;28.10;47.10;;;;;;4936561;29;20055;-67
2022/05/20 07:36:59;;;;;;;12.32;3.67;;;28.30;47.50;;;;;;4936741;29;20445;-67
2022/05/20 07:39:25;;;;;;;10.30;3.53;;;28.40;47.40;;;;;;4935202;29;20039;-67
2022/05/20 07:41:51;;;;;;;8.48;3.20;;;28.40;46.90;;;;;;4936547;29;20024;-69
2022/05/20 07:44:18;;;;;;;12.95;3.60;;;28.30;47.10;;;;;;4936718;29;20032;-69
2022/05/20 07:46:44;;;;;;;15.95;3.97;;;28.30;47.00;;;;;;4936129;29;20028;-69
2022/05/20 07:49:10;;;;;;;17.10;3.70;;;28.20;46.90;;;;;;4936413;29;20026;-70
2022/05/20 07:51:39;;;;;;;13.02;3.47;;;28.30;46.90;;;;;;4936397;29;20078;-67
2022/05/20 07:54:11;;;;;;;12.48;3.55;;;28.30;47.00;;;;;;4936276;29;20067;-67
2022/05/20 07:56:49;;;;;;;9.73;3.50;;;28.40;47.00;;;;;;4934972;29;20477;-68
2022/05/20 07:59:42;;;;;;;20.92;4.50;;;28.40;47.00;;;;;;4936328;29;20076;-68
2022/05/20 08:02:09;;;;;;;13.55;3.88;;;28.30;45.10;;;;;;4936296;29;20054;-71
2022/05/20 08:04:57;;;;;;;21.67;4.38;;;28.20;46.90;;;;;;4919214;29;20038;-68
2022/05/20 08:07:27;;;;;;;13.63;4.05;;;28.00;46.60;;;;;;4936371;29;20393;-68
2022/05/20 08:09:53;;;;;;;13.30;3.75;;;28.00;46.30;;;;;;4934841;29;20394;-69
2022/05/20 08:12:19;;;;;;;8.98;3.80;;;27.90;46.70;;;;;;4936318;29;20031;-69
2022/05/20 08:14:45;;;;;;;10.27;3.50;;;27.80;47.20;;;;;;4934689;29;20024;-70
2022/05/20 08:17:11;;;;;;;22.98;4.28;;;27.80;46.50;;;;;;4935734;29;20115;-70
2022/05/20 08:19:38;;;;;;;11.30;3.80;;;27.60;46.40;;;;;;4934209;29;20042;-70
2022/05/20 08:22:03;;;;;;;13.40;3.60;;;27.50;46.40;;;;;;4935816;29;20099;-73
2022/05/20 08:24:30;;;;;;;7.03;3.22;;;27.50;46.90;;;;;;4936000;29;20115;-78
2022/05/20 08:26:57;;;;;;;15.88;5.38;;;27.50;46.90;;;;;;4935861;29;20035;-72
2022/05/20 08:29:23;;;;;;;14.32;3.90;;;27.40;47.10;;;;;;4935372;29;20031;-74
2022/05/20 08:31:49;;;;;;;23.30;4.05;;;27.40;46.90;;;;;;4935697;29;20469;-73
2022/05/20 08:34:15;;;;;;;9.63;3.03;;;27.20;45.60;;;;;;4934594;29;20079;-73
2022/05/20 08:36:41;;;;;;;37.30;19.40;;;27.20;45.50;;;;;;4936213;29;20020;-73
2022/05/20 08:39:12;;;;;;;15.18;3.88;;;27.10;46.10;;;;;;4934419;29;20040;-73
2022/05/20 08:41:41;;;;;;;12.35;3.70;;;27.10;46.50;;;;;;4934609;29;20059;-72
2022/05/20 08:44:13;;;;;;;16.55;5.65;;;27.10;45.90;;;;;;4938271;29;20042;-71
2022/05/20 08:46:40;;;;;;;18.42;4.47;;;27.10;45.50;;;;;;4935895;29;20074;-74
2022/05/20 08:49:10;;;;;;;18.73;4.50;;;27.20;45.30;;;;;;4935740;29;20024;-69
2022/05/20 08:51:39;;;;;;;9.77;3.38;;;27.10;45.60;;;;;;4935935;29;20028;-70
2022/05/20 08:54:05;;;;;;;12.27;3.17;;;27.10;44.50;;;;;;4935601;29;20052;-72
2022/05/20 08:56:31;;;;;;;15.52;3.78;;;27.10;43.90;;;;;;4935481;29;20183;-71
2022/05/20 08:59:03;;;;;;;9.43;2.95;;;27.10;44.00;;;;;;4935327;29;20051;-71
2022/05/20 09:01:42;;;;;;;9.13;3.28;;;27.00;43.40;;;;;;4935888;29;20051;-70
2022/05/20 09:04:10;;;;;;;9.55;3.08;;;27.00;42.10;;;;;;4934444;29;20035;-73
2022/05/20 09:06:55;;;;;;;16.10;3.95;;;27.10;43.40;;;;;;4935575;29;20032;-74
2022/05/20 09:09:21;;;;;;;11.65;2.75;;;27.10;43.30;;;;;;4935662;29;20027;-74
2022/05/20 09:11:57;;;;;;;19.83;4.10;;;27.10;42.60;;;;;;4934268;29;20568;-72
2022/05/20 09:17:14;;;;;;;8.70;2.88;;;27.10;42.50;;;;;;4935652;29;20103;-73
2022/05/20 09:19:56;;;;;;;10.57;3.22;;;27.10;42.20;;;;;;4935588;29;20036;-74
2022/05/20 09:22:37;;;;;;;16.58;5.20;;;27.10;41.90;;;;;;4935640;29;20492;-72
2022/05/20 09:25:10;;;;;;;12.45;2.80;;;27.10;42.90;;;;;;4934230;29;20031;-75
2022/05/20 09:27:36;;;;;;;16.35;3.13;;;27.10;42.00;;;;;;4934667;29;20035;-73
2022/05/20 09:30:09;;;;;;;14.13;3.00;;;27.10;42.80;;;;;;4935352;29;20047;-73
2022/05/20 09:32:41;;;;;;;13.02;4.63;;;27.10;42.60;;;;;;4933698;29;20028;-74
2022/05/20 09:35:18;;;;;;;8.93;3.30;;;27.10;42.40;;;;;;4933921;29;20043;-73
2022/05/20 09:37:50;;;;;;;7.63;3.05;;;27.10;43.20;;;;;;4935634;29;20446;-74
2022/05/20 09:40:32;;;;;;;10.60;2.90;;;27.10;42.80;;;;;;4935517;29;20031;-71
2022/05/20 09:42:59;;;;;;;11.73;3.28;;;27.00;41.70;;;;;;4935507;29;20032;-73
2022/05/20 09:45:25;;;;;;;9.27;3.67;;;27.00;43.00;;;;;;4935257;29;20091;-72
2022/05/20 09:47:56;;;;;;;13.10;3.80;;;27.00;43.60;;;;;;4935367;29;20028;-74
2022/05/20 09:50:34;;;;;;;15.05;5.00;;;27.00;43.40;;;;;;4933985;29;20030;-73
2022/05/20 09:53:21;;;;;;;7.90;3.53;;;27.10;44.30;;;;;;4934065;29;20042;-76
2022/05/20 09:55:47;;;;;;;12.05;3.92;;;27.10;43.80;;;;;;4935392;29;20036;-71
2022/05/20 09:58:28;;;;;;;11.32;3.40;;;27.20;43.80;;;;;;4934802;29;20125;-70
2022/05/20 10:01:03;;;;;;;10.25;3.63;;;27.30;42.00;;;;;;4934922;29;20027;-73
2022/05/20 10:03:57;;;;;;;8.45;3.65;;;27.40;43.20;;;;;;4934988;29;20102;-72
2022/05/20 10:06:45;;;;;;;12.63;3.00;;;27.40;43.00;;;;;;4930943;29;20047;-71
2022/05/20 10:09:53;;;;;;;12.40;3.20;;;27.50;42.50;;;;;;4937154;29;20373;-70
2022/05/20 10:12:29;;;;;;;9.23;2.60;;;27.60;41.10;;;;;;4938293;29;20028;-70
2022/05/20 10:15:12;;;;;;;7.63;3.05;;;27.70;41.10;;;;;;4938387;29;20095;-68
2022/05/20 10:17:44;;;;;;;10.50;2.72;;;27.70;40.90;;;;;;4938509;29;20126;-71
2022/05/20 10:20:12;;;;;;;15.57;3.88;;;27.70;40.90;;;;;;4938296;29;20031;-70
2022/05/20 10:22:57;;;;;;;8.15;4.03;;;27.80;41.00;;;;;;4938658;29;20090;-71
2022/05/20 10:25:46;;;;;;;9.35;2.88;;;27.80;40.50;;;;;;4938307;29;20083;-69
2022/05/20 10:34:14;;;;;;;8.68;2.90;;;28.00;41.50;;;;;;4938462;29;20130;-71
2022/05/20 10:36:49;;;;;;;7.72;3.67;;;28.10;40.60;;;;;;4936956;29;20424;-73
2022/05/20 10:39:39;;;;;;;6.32;2.80;;;28.10;41.20;;;;;;4938272;29;20059;-75
2022/05/20 10:42:36;;;;;;;8.63;3.22;;;28.20;40.00;;;;;;4937860;29;20020;-70
2022/05/20 10:48:49;;;;;;;8.82;2.78;;;28.30;41.00;;;;;;4937955;29;20038;-72
2022/05/20 10:51:42;;;;;;;8.88;2.55;;;28.40;40.60;;;;;;4937884;29;20034;-70
2022/05/20 10:54:23;;;;;;;8.85;3.00;;;28.40;39.90;;;;;;4937644;29;20561;-70
2022/05/20 10:57:03;;;;;;;9.52;2.72;;;28.50;39.30;;;;;;4937695;29;20060;-69
2022/05/20 11:00:08;;;;;;;10.73;4.65;;;28.50;39.30;;;;;;4937269;29;20454;-73
2022/05/20 11:02:55;;;;;;;9.98;3.22;;;28.50;39.00;;;;;;4937326;29;20034;-70
2022/05/20 11:05:55;;;;;;;10.13;2.88;;;28.50;38.30;;;;;;4937387;29;20026;-69
2022/05/20 11:08:51;;;;;;;9.38;2.63;;;28.50;38.70;;;;;;4937559;29;20358;-69
2022/05/20 11:11:34;;;;;;;9.63;2.28;;;28.50;38.40;;;;;;4935827;29;20481;-70
2022/05/20 11:14:22;;;;;;;9.02;2.60;;;28.50;38.10;;;;;;4937335;29;20035;-69
2022/05/20 11:17:07;;;;;;;8.88;3.30;;;28.40;38.30;;;;;;4937629;29;20030;-70
2022/05/20 11:19:57;;;;;;;8.30;2.50;;;28.50;38.80;;;;;;4936986;29;20039;-71
2022/05/20 11:22:41;;;;;;;10.10;2.90;;;28.60;38.00;;;;;;4937230;29;20046;-69
2022/05/20 11:25:19;;;;;;;8.02;2.70;;;28.60;38.20;;;;;;4935518;29;20430;-72
2022/05/20 11:28:09;;;;;;;6.32;2.50;;;28.70;37.80;;;;;;4937149;29;20020;-71
2022/05/20 11:30:47;;;;;;;12.00;2.35;;;28.80;37.20;;;;;;4936886;29;20508;-70
2022/05/20 11:33:31;;;;;;;7.85;2.40;;;28.80;37.10;;;;;;4935395;29;20397;-70
2022/05/20 11:36:19;;;;;;;11.65;2.63;;;28.80;37.70;;;;;;4936869;29;20047;-69
2022/05/20 11:39:03;;;;;;;9.07;2.80;;;28.90;37.40;;;;;;4936807;29;20126;-71
2022/05/20 11:41:54;;;;;;;23.40;3.13;;;28.90;37.10;;;;;;4936658;29;20035;-73
2022/05/20 11:44:35;;;;;;;6.55;2.35;;;28.90;37.00;;;;;;4935219;29;20039;-69
2022/05/20 11:47:16;;;;;;;8.60;2.60;;;28.90;37.50;;;;;;4935181;29;20032;-70
2022/05/20 11:50:23;;;;;;;9.15;2.40;;;29.00;37.30;;;;;;4936294;29;20075;-70
2022/05/20 11:53:01;;;;;;;7.40;2.22;;;29.00;37.00;;;;;;4936327;29;20047;-69
2022/05/20 11:55:32;;;;;;;11.05;2.60;;;29.00;36.70;;;;;;4936114;29;20062;-69
2022/05/20 11:58:06;;;;;;;7.72;2.58;;;29.00;37.50;;;;;;4936536;29;20047;-71
2022/05/20 12:00:37;;;;;;;7.95;2.80;;;29.00;38.10;;;;;;4936527;29;20032;-72
2022/05/20 12:03:12;;;;;;;9.23;2.90;;;29.00;38.20;;;;;;4936781;29;20035;-73
2022/05/20 12:05:41;;;;;;;9.45;2.60;;;29.00;37.90;;;;;;4936268;29;20027;-72
2022/05/20 12:08:08;;;;;;;9.88;2.75;;;29.00;38.10;;;;;;4936304;29;20028;-71
2022/05/20 12:10:34;;;;;;;12.77;2.40;;;29.10;38.10;;;;;;4936056;29;20031;-69
2022/05/20 12:13:12;;;;;;;11.55;2.33;;;29.20;38.00;;;;;;4936728;29;20030;-72
2022/05/20 12:15:43;;;;;;;14.00;2.42;;;29.00;37.90;;;;;;4934666;29;20473;-68
2022/05/20 12:24:32;;;;;;;6.25;2.22;;;28.90;37.80;;;;;;4936265;29;20127;-70
2022/05/20 12:26:59;;;;;;;12.93;2.40;;;29.00;38.00;;;;;;4935821;29;20035;-69
2022/05/20 12:29:37;;;;;;;14.13;2.90;;;29.10;37.80;;;;;;4935729;29;20034;-73
2022/05/20 12:32:15;;;;;;;15.32;2.00;;;29.10;37.40;;;;;;4935064;29;20051;-74
2022/05/20 12:34:42;;;;;;;7.40;2.10;;;29.20;36.90;;;;;;4936309;29;20042;-77
2022/05/20 12:37:40;;;;;;;10.75;3.08;;;29.10;36.60;;;;;;4936623;29;20016;-75
2022/05/20 12:40:15;;;;;;;7.60;2.58;;;29.10;36.30;;;;;;4935655;29;20054;-77
2022/05/20 12:42:53;;;;;;;8.60;2.15;;;29.00;36.90;;;;;;4936271;29;20028;-73
2022/05/20 12:45:20;;;;;;;9.55;2.03;;;29.00;36.60;;;;;;4936105;29;20027;-71
2022/05/20 12:47:45;;;;;;;6.38;2.20;;;29.00;36.70;;;;;;4936016;29;20037;-74
2022/05/20 12:50:14;;;;;;;11.55;2.60;;;29.00;36.60;;;;;;4935790;29;20107;-77
2022/05/20 12:52:57;;;;;;;8.30;2.38;;;29.10;36.20;;;;;;4935911;29;20032;-74
2022/05/20 12:55:37;;;;;;;7.40;2.42;;;29.00;36.20;;;;;;4935428;29;20408;-84
2022/05/20 12:58:08;;;;;;;10.90;2.85;;;29.00;36.60;;;;;;4934978;29;20079;-75
2022/05/20 13:00:48;;;;;;;7.07;2.10;;;29.10;36.70;;;;;;4935081;29;20044;-74
2022/05/20 13:03:35;;;;;;;8.30;2.55;;;29.20;36.70;;;;;;4935150;29;20091;-73
2022/05/20 13:06:16;;;;;;;9.50;2.85;;;29.20;36.20;;;;;;4934095;29;20555;-70
2022/05/20 13:08:48;;;;;;;7.50;2.40;;;29.20;37.00;;;;;;4935285;29;20529;-71
2022/05/20 13:11:17;;;;;;;6.73;1.93;;;29.20;36.30;;;;;;4934760;29;20031;-74
2022/05/20 13:13:45;;;;;;;5.43;2.00;;;29.20;36.40;;;;;;4935044;29;20319;-71
2022/05/20 13:16:13;;;;;;;6.90;2.10;;;29.10;35.50;;;;;;4933659;29;20385;-74
2022/05/20 13:18:42;;;;;;;7.97;2.60;;;29.10;35.80;;;;;;4934893;29;20504;-70
2022/05/20 13:21:17;;;;;;;12.02;2.38;;;29.10;35.90;;;;;;4934802;29;20030;-70
2022/05/20 13:23:49;;;;;;;6.97;2.20;;;29.20;35.90;;;;;;4934813;29;20028;-69
2022/05/20 13:26:22;;;;;;;8.57;2.45;;;29.20;35.30;;;;;;4933479;29;20020;-69
2022/05/20 13:28:48;;;;;;;6.57;2.08;;;29.10;34.60;;;;;;4933665;29;20031;-74
2022/05/20 13:31:23;;;;;;;6.07;1.95;;;29.00;34.70;;;;;;4934792;29;20409;-75
2022/05/20 13:33:49;;;;;;;17.48;2.63;;;28.90;34.80;;;;;;4934942;29;20028;-73
2022/05/20 13:36:19;;;;;;;6.68;2.17;;;28.80;35.00;;;;;;4934780;29;20054;-74
2022/05/20 13:38:50;;;;;;;4.30;2.10;;;28.80;35.10;;;;;;4934735;29;20032;-70